createdAt,value
2022-10-25T00:00:06.165Z,99927.28
2022-10-25T00:01:07.298Z,99926.25
2022-10-25T00:02:02.463Z,99919.81
2022-10-25T00:02:56.209Z,99917.28
2022-10-25T00:03:50.156Z,99925.09
2022-10-25T00:04:44.153Z,99900.78
2022-10-25T00:05:38.164Z,99928.31
2022-10-25T00:06:25.196Z,99927.13
2022-10-25T00:06:59.298Z,99916.94
2022-10-25T00:07:46.470Z,99905.50
2022-10-25T00:08:20.239Z,99908.06
2022-10-25T00:09:07.183Z,99909.09
2022-10-25T00:09:41.248Z,99911.81
2022-10-25T00:10:28.145Z,99920.97
2022-10-25T00:11:02.242Z,99914.53
2022-10-25T00:11:50.205Z,99909.94
2022-10-25T00:12:24.228Z,99909.09
2022-10-25T00:13:12.150Z,99929.47
2022-10-25T00:13:46.235Z,99915.19
2022-10-25T00:14:34.143Z,99915.91
2022-10-25T00:15:09.204Z,99911.16
2022-10-25T00:15:56.137Z,99928.00
2022-10-25T00:16:35.209Z,99911.69
2022-10-25T00:17:16.180Z,99914.41
2022-10-25T00:17:57.227Z,99927.13
2022-10-25T00:18:37.157Z,99932.59
2022-10-25T00:19:17.259Z,99898.13
2022-10-25T00:19:58.164Z,99917.97
2022-10-25T00:20:38.334Z,99922.41
2022-10-25T00:21:18.137Z,99911.88
2022-10-25T00:21:58.269Z,99934.00
2022-10-25T00:22:38.178Z,99929.09
2022-10-25T00:23:18.204Z,99939.47
2022-10-25T00:23:59.128Z,99931.50
2022-10-25T00:24:39.226Z,99927.94
2022-10-25T00:25:20.145Z,99930.31
2022-10-25T00:26:09.233Z,99938.84
2022-10-25T00:26:49.145Z,99941.56
2022-10-25T00:27:29.249Z,99940.59
2022-10-25T00:28:09.181Z,99931.91
2022-10-25T00:28:50.229Z,99945.38
2022-10-25T00:29:30.164Z,99938.53
2022-10-25T00:30:12.229Z,99942.97
2022-10-25T00:30:52.135Z,99947.41
2022-10-25T00:31:32.235Z,99930.06
2022-10-25T00:32:12.146Z,99937.22
2022-10-25T00:32:52.787Z,99933.97
2022-10-25T00:33:37.185Z,99935.19
2022-10-25T00:34:17.184Z,99926.31
2022-10-25T00:34:58.133Z,99926.00
2022-10-25T00:35:38.190Z,99947.63
2022-10-25T00:36:28.133Z,99934.84
2022-10-25T00:37:08.214Z,99930.78
2022-10-25T00:37:48.139Z,99933.84
2022-10-25T00:38:28.200Z,99938.72
2022-10-25T00:39:09.182Z,99943.69
2022-10-25T00:39:49.201Z,99934.50
2022-10-25T00:40:29.133Z,99939.94
2022-10-25T00:41:10.237Z,99939.22
2022-10-25T00:41:50.145Z,99936.88
2022-10-25T00:42:33.254Z,99937.91
2022-10-25T00:43:16.143Z,99935.88
2022-10-25T00:44:24.174Z,99929.03
2022-10-25T00:45:38.130Z,99933.47
2022-10-25T00:46:32.137Z,99934.50
2022-10-25T00:47:35.129Z,99935.00
2022-10-25T00:48:29.112Z,99941.34
2022-10-25T00:49:33.150Z,99935.88
2022-10-25T00:50:42.152Z,99923.97
2022-10-25T00:51:42.142Z,99933.84
2022-10-25T00:52:36.150Z,99940.28
2022-10-25T00:53:40.124Z,99931.78
2022-10-25T00:54:39.170Z,99932.81
2022-10-25T00:55:35.133Z,99930.09
2022-10-25T00:56:41.109Z,99926.19
2022-10-25T00:57:56.144Z,99934.88
2022-10-25T00:58:51.128Z,99919.56
2022-10-25T00:59:46.207Z,99939.66
2022-10-25T01:00:40.138Z,99924.38
2022-10-25T01:01:34.210Z,99941.34
2022-10-25T01:02:29.198Z,99939.69
2022-10-25T01:03:23.213Z,99938.31
2022-10-25T01:04:22.129Z,99923.88
2022-10-25T01:05:10.137Z,99924.06
2022-10-25T01:05:44.244Z,99936.78
2022-10-25T01:06:41.102Z,99945.47
2022-10-25T01:07:15.182Z,99937.66
2022-10-25T01:08:02.101Z,99940.34
2022-10-25T01:08:36.193Z,99940.41
2022-10-25T01:09:28.094Z,99928.84
2022-10-25T01:10:02.194Z,99947.00
2022-10-25T01:10:44.169Z,99941.41
2022-10-25T01:11:24.180Z,99927.47
2022-10-25T01:12:05.104Z,99919.31
2022-10-25T01:12:47.510Z,99926.09
2022-10-25T01:13:30.126Z,99937.00
2022-10-25T01:14:13.257Z,99934.44
2022-10-25T01:14:57.085Z,99926.09
2022-10-25T01:16:13.122Z,99935.13
2022-10-25T01:17:44.113Z,99936.84
2022-10-25T01:18:57.089Z,99942.09
2022-10-25T01:20:29.096Z,99955.06
2022-10-25T01:21:55.123Z,99952.47
2022-10-25T01:23:12.115Z,99944.50
2022-10-25T01:24:33.089Z,99930.56
2022-10-25T01:26:03.104Z,99944.84
2022-10-25T01:27:26.144Z,99930.06
2022-10-25T01:29:08.089Z,99943.81
2022-10-25T01:30:14.110Z,99943.81
2022-10-25T01:31:34.089Z,99932.59
2022-10-25T01:32:49.345Z,99940.06
2022-10-25T01:33:51.080Z,99938.22
2022-10-25T01:35:04.089Z,99940.94
2022-10-25T01:37:01.084Z,99935.81
2022-10-25T01:38:09.127Z,99937.53
2022-10-25T01:39:19.076Z,99936.34
2022-10-25T01:40:38.087Z,99936.00
2022-10-25T01:41:55.066Z,99937.88
2022-10-25T01:43:01.084Z,99924.13
2022-10-25T01:43:48.112Z,99926.84
2022-10-25T01:45:01.167Z,99931.59
2022-10-25T01:45:53.073Z,99934.47
2022-10-25T01:46:39.124Z,99917.28
2022-10-25T01:47:40.069Z,99922.03
2022-10-25T01:48:46.551Z,99912.88
2022-10-25T01:49:52.127Z,99933.63
2022-10-25T01:50:42.146Z,99926.16
2022-10-25T01:51:25.073Z,99921.19
2022-10-25T01:52:05.175Z,99940.25
2022-10-25T01:52:45.142Z,99920.50
2022-10-25T01:53:25.134Z,99934.31
2022-10-25T01:54:05.057Z,99931.91
2022-10-25T01:54:45.166Z,99927.16
2022-10-25T01:55:27.086Z,99939.56
2022-10-25T01:56:09.153Z,99928.88
2022-10-25T01:57:21.065Z,99925.63
2022-10-25T01:58:31.374Z,99935.66
2022-10-25T01:59:43.071Z,99922.72
2022-10-25T02:00:36.217Z,99928.53
2022-10-25T02:02:03.075Z,99931.91
2022-10-25T02:03:09.057Z,99922.03
2022-10-25T02:04:53.068Z,99921.03
2022-10-25T02:06:23.109Z,99925.78
2022-10-25T02:07:37.041Z,99928.50
2022-10-25T02:08:56.089Z,99930.41
2022-10-25T02:10:30.081Z,99915.22
2022-10-25T02:11:37.101Z,99925.47
2022-10-25T02:12:40.050Z,99927.81
2022-10-25T02:14:13.043Z,99929.34
2022-10-25T02:15:46.066Z,99923.91
2022-10-25T02:17:07.080Z,99928.16
2022-10-25T02:18:15.045Z,99928.84
2022-10-25T02:19:15.048Z,99931.75
2022-10-25T02:20:13.037Z,99922.06
2022-10-25T02:21:08.057Z,99930.91
2022-10-25T02:22:03.069Z,99924.25
2022-10-25T02:22:45.496Z,99922.88
2022-10-25T02:23:27.121Z,99926.78
2022-10-25T02:24:17.034Z,99917.78
2022-10-25T02:24:58.128Z,99908.78
2022-10-25T02:25:44.082Z,99929.84
2022-10-25T02:26:25.129Z,99921.03
2022-10-25T02:27:06.137Z,99926.97
2022-10-25T02:27:54.054Z,99926.97
2022-10-25T02:28:53.049Z,99927.81
2022-10-25T02:29:48.051Z,99928.66
2022-10-25T02:30:43.055Z,99907.22
2022-10-25T02:31:38.040Z,99920.50
2022-10-25T02:32:32.043Z,99927.47
2022-10-25T02:33:19.124Z,99924.41
2022-10-25T02:33:54.143Z,99926.31
2022-10-25T02:34:41.027Z,99928.47
2022-10-25T02:35:22.132Z,99920.00
2022-10-25T02:36:29.040Z,99926.97
2022-10-25T02:37:03.131Z,99913.00
2022-10-25T02:37:50.243Z,99906.56
2022-10-25T02:38:31.249Z,99923.38
2022-10-25T02:39:27.742Z,99927.78
2022-10-25T02:40:25.010Z,99908.56
2022-10-25T02:41:20.025Z,99928.31
2022-10-25T02:42:14.038Z,99934.44
2022-10-25T02:43:08.030Z,99934.59
2022-10-25T02:43:55.063Z,99929.16
2022-10-25T02:44:29.120Z,99936.78
2022-10-25T02:45:17.014Z,99927.09
2022-10-25T02:45:51.093Z,99927.94
2022-10-25T02:46:38.010Z,99923.84
2022-10-25T02:47:12.078Z,99925.75
2022-10-25T02:47:59.034Z,99929.81
2022-10-25T02:48:33.130Z,99925.03
2022-10-25T02:49:20.068Z,99929.50
2022-10-25T02:49:54.115Z,99939.47
2022-10-25T02:50:41.013Z,99926.38
2022-10-25T02:51:17.100Z,99933.88
2022-10-25T02:52:04.037Z,99946.13
2022-10-25T02:52:38.080Z,99940.69
2022-10-25T02:53:25.017Z,99924.19
2022-10-25T02:53:59.079Z,99926.91
2022-10-25T02:54:39.067Z,99928.06
2022-10-25T02:55:19.101Z,99940.84
2022-10-25T02:56:13.034Z,99942.53
2022-10-25T02:56:53.105Z,99920.22
2022-10-25T02:57:38.028Z,99939.31
2022-10-25T02:58:18.092Z,99929.28
2022-10-25T02:59:02.001Z,99936.09
2022-10-25T02:59:49.054Z,99922.09
2022-10-25T03:00:43.070Z,99920.59
2022-10-25T03:01:38.063Z,99941.66
2022-10-25T03:02:32.001Z,99932.47
2022-10-25T03:03:26.016Z,99919.72
2022-10-25T03:04:20.016Z,99918.53
2022-10-25T03:05:07.103Z,99920.38
2022-10-25T03:05:41.068Z,99927.72
2022-10-25T03:06:27.997Z,99927.03
2022-10-25T03:07:02.093Z,99932.28
2022-10-25T03:07:49.026Z,99934.16
2022-10-25T03:08:23.120Z,99933.16
2022-10-25T03:09:11.013Z,99923.97
2022-10-25T03:09:45.083Z,99932.81
2022-10-25T03:10:32.013Z,99919.34
2022-10-25T03:11:06.105Z,99928.34
2022-10-25T03:11:53.005Z,99923.97
2022-10-25T03:12:27.120Z,99931.09
2022-10-25T03:13:13.976Z,99932.47
2022-10-25T03:13:48.096Z,99937.56
2022-10-25T03:14:35.006Z,99937.19
2022-10-25T03:15:09.060Z,99932.44
2022-10-25T03:15:56.015Z,99933.78
2022-10-25T03:16:30.107Z,99929.34
2022-10-25T03:17:16.985Z,99933.97
2022-10-25T03:17:51.122Z,99928.34
2022-10-25T03:18:39.010Z,99929.03
2022-10-25T03:19:13.040Z,99937.84
2022-10-25T03:19:59.984Z,99927.00
2022-10-25T03:20:34.125Z,99921.19
2022-10-25T03:21:21.029Z,99921.06
2022-10-25T03:21:55.084Z,99926.50
2022-10-25T03:22:41.997Z,99920.56
2022-10-25T03:23:17.046Z,99931.44
2022-10-25T03:24:03.981Z,99926.00
2022-10-25T03:24:38.063Z,99930.06
2022-10-25T03:25:24.985Z,99924.31
2022-10-25T03:26:04.046Z,99921.59
2022-10-25T03:26:45.029Z,99918.69
2022-10-25T03:27:25.055Z,99912.25
2022-10-25T03:28:08.030Z,99917.84
2022-10-25T03:28:48.049Z,99906.28
2022-10-25T03:29:27.992Z,99926.19
2022-10-25T03:30:08.055Z,99926.69
2022-10-25T03:30:48.983Z,99920.09
2022-10-25T03:31:29.094Z,99910.00
2022-10-25T03:32:12.054Z,99917.84
2022-10-25T03:32:52.074Z,99922.75
2022-10-25T03:33:32.993Z,99925.34
2022-10-25T03:34:13.069Z,99927.34
2022-10-25T03:34:52.991Z,99931.09
2022-10-25T03:35:34.060Z,99938.28
2022-10-25T03:36:14.972Z,99931.81
2022-10-25T03:36:55.048Z,99929.41
2022-10-25T03:37:35.022Z,99934.16
2022-10-25T03:38:15.033Z,99923.78
2022-10-25T03:38:54.977Z,99925.00
2022-10-25T03:39:35.067Z,99912.72
2022-10-25T03:40:15.982Z,99911.00
2022-10-25T03:40:56.090Z,99927.81
2022-10-25T03:41:36.991Z,99925.66
2022-10-25T03:42:17.094Z,99923.97
2022-10-25T03:42:57.041Z,99928.91
2022-10-25T03:43:37.074Z,99916.97
2022-10-25T03:44:16.965Z,99918.84
2022-10-25T03:44:58.032Z,99912.06
2022-10-25T03:45:37.973Z,99926.00
2022-10-25T03:46:18.088Z,99936.53
2022-10-25T03:46:59.062Z,99934.66
2022-10-25T03:47:39.057Z,99930.06
2022-10-25T03:48:20.003Z,99934.97
2022-10-25T03:49:00.063Z,99933.91
2022-10-25T03:49:39.962Z,99932.53
2022-10-25T03:50:20.071Z,99941.91
2022-10-25T03:51:00.969Z,99939.47
2022-10-25T03:51:41.080Z,99929.44
2022-10-25T03:52:21.957Z,99929.25
2022-10-25T03:53:02.096Z,99923.63
2022-10-25T03:53:42.005Z,99931.06
2022-10-25T03:54:24.369Z,99931.63
2022-10-25T03:55:07.956Z,99920.06
2022-10-25T03:55:48.254Z,99941.31
2022-10-25T03:56:27.976Z,99946.41
2022-10-25T03:57:08.014Z,99941.50
2022-10-25T03:57:48.386Z,99921.38
2022-10-25T03:58:29.029Z,99935.66
2022-10-25T03:59:09.989Z,99934.09
2022-10-25T03:59:50.060Z,99922.06
2022-10-25T04:00:30.064Z,99920.00
2022-10-25T04:01:10.227Z,99930.22
2022-10-25T04:01:50.974Z,99932.94
2022-10-25T04:02:31.036Z,99926.50
2022-10-25T04:03:10.949Z,99931.63
2022-10-25T04:03:51.079Z,99938.50
2022-10-25T04:04:30.980Z,99922.00
2022-10-25T04:05:12.004Z,99921.50
2022-10-25T04:05:51.994Z,99933.41
2022-10-25T04:06:33.162Z,99931.19
2022-10-25T04:07:13.963Z,99914.16
2022-10-25T04:07:54.085Z,99918.28
2022-10-25T04:08:33.948Z,99924.56
2022-10-25T04:09:14.030Z,99942.34
2022-10-25T04:10:01.049Z,99944.22
2022-10-25T04:10:34.814Z,99937.03
2022-10-25T04:11:21.948Z,99947.78
2022-10-25T04:11:55.657Z,99942.47
2022-10-25T04:12:43.004Z,99938.78
2022-10-25T04:13:16.689Z,99928.84
2022-10-25T04:14:03.949Z,99931.56
2022-10-25T04:14:38.751Z,99940.00
2022-10-25T04:15:27.023Z,99946.53
2022-10-25T04:16:23.953Z,99938.31
2022-10-25T04:17:17.929Z,99952.25
2022-10-25T04:18:12.938Z,99932.88
2022-10-25T04:19:07.960Z,99942.59
2022-10-25T04:20:01.957Z,99945.44
2022-10-25T04:20:48.973Z,99952.25
2022-10-25T04:21:23.001Z,99935.94
2022-10-25T04:22:10.939Z,99932.19
2022-10-25T04:22:45.041Z,99943.81
2022-10-25T04:23:31.954Z,99947.22
2022-10-25T04:24:06.045Z,99944.50
2022-10-25T04:24:52.933Z,99922.34
2022-10-25T04:25:27.042Z,99930.88
2022-10-25T04:26:14.000Z,99942.16
2022-10-25T04:26:48.032Z,99946.59
2022-10-25T04:27:34.958Z,99944.78
2022-10-25T04:28:09.049Z,99921.72
2022-10-25T04:28:58.946Z,99940.78
2022-10-25T04:29:33.009Z,99926.66
2022-10-25T04:30:19.935Z,99936.72
2022-10-25T04:30:54.010Z,99932.16
2022-10-25T04:31:34.969Z,99933.16
2022-10-25T04:32:15.105Z,99935.19
2022-10-25T04:32:54.960Z,99919.00
2022-10-25T04:33:35.002Z,99927.34
2022-10-25T04:34:14.947Z,99916.22
2022-10-25T04:34:55.013Z,99929.38
2022-10-25T04:35:34.945Z,99935.34
2022-10-25T04:36:15.007Z,99930.53
2022-10-25T04:36:55.966Z,99943.09
2022-10-25T04:37:35.988Z,99927.06
2022-10-25T04:38:17.925Z,99932.56
2022-10-25T04:39:00.056Z,99933.53
2022-10-25T04:39:40.926Z,99932.88
2022-10-25T04:40:22.695Z,99934.91
2022-10-25T04:41:06.928Z,99937.66
2022-10-25T04:41:47.005Z,99928.63
2022-10-25T04:42:26.944Z,99934.22
2022-10-25T04:43:06.996Z,99937.66
2022-10-25T04:43:46.917Z,99937.66
2022-10-25T04:44:26.981Z,99942.25
2022-10-25T04:45:07.921Z,99941.09
2022-10-25T04:45:47.978Z,99930.22
2022-10-25T04:46:28.930Z,99928.50
2022-10-25T04:47:08.972Z,99932.56
2022-10-25T04:47:48.978Z,99925.22
2022-10-25T04:48:29.126Z,99924.06
2022-10-25T04:49:08.903Z,99921.28
2022-10-25T04:49:48.991Z,99926.06
2022-10-25T04:50:28.904Z,99936.63
2022-10-25T04:51:09.158Z,99928.94
2022-10-25T04:52:38.007Z,99935.44
2022-10-25T04:53:18.941Z,99927.59
2022-10-25T04:54:02.992Z,99933.53
2022-10-25T04:54:42.900Z,99932.56
2022-10-25T04:55:22.989Z,99922.34
2022-10-25T04:56:08.893Z,99929.13
2022-10-25T04:56:48.957Z,99933.53
2022-10-25T04:57:29.901Z,99941.38
2022-10-25T04:58:10.968Z,99929.41
2022-10-25T04:58:50.946Z,99940.84
2022-10-25T04:59:30.986Z,99945.66
2022-10-25T05:00:11.899Z,99939.63
2022-10-25T05:00:54.302Z,99936.63
2022-10-25T05:01:34.945Z,99938.31
2022-10-25T05:02:15.022Z,99927.06
2022-10-25T05:02:57.966Z,99946.25
2022-10-25T05:03:38.952Z,99945.13
2022-10-25T05:04:18.941Z,99945.97
2022-10-25T05:04:58.985Z,99942.00
2022-10-25T05:05:38.918Z,99932.50
2022-10-25T05:06:32.007Z,99949.50
2022-10-25T05:07:12.908Z,99947.00
2022-10-25T05:07:53.024Z,99941.94
2022-10-25T05:08:32.885Z,99954.06
2022-10-25T05:09:12.949Z,99937.16
2022-10-25T05:09:52.912Z,99953.97
2022-10-25T05:10:35.981Z,99938.31
2022-10-25T05:11:17.899Z,99924.06
2022-10-25T05:11:58.985Z,99950.22
2022-10-25T05:12:39.893Z,99950.56
2022-10-25T05:13:19.965Z,99947.78
2022-10-25T05:13:59.968Z,99943.22
2022-10-25T05:14:39.985Z,99944.09
2022-10-25T05:15:21.019Z,99937.06
2022-10-25T05:16:16.889Z,99931.94
2022-10-25T05:17:10.864Z,99958.63
2022-10-25T05:18:04.933Z,99950.66
2022-10-25T05:19:00.896Z,99939.31
2022-10-25T05:19:54.901Z,99952.50
2022-10-25T05:20:41.912Z,99959.94
2022-10-25T05:21:17.053Z,99951.97
2022-10-25T05:22:03.920Z,99952.81
2022-10-25T05:22:38.022Z,99957.19
2022-10-25T05:23:25.866Z,99959.78
2022-10-25T05:24:01.796Z,99947.72
2022-10-25T05:24:49.900Z,99947.72
2022-10-25T05:25:24.023Z,99951.00
2022-10-25T05:26:09.918Z,99952.38
2022-10-25T05:26:49.973Z,99957.72
2022-10-25T05:27:29.878Z,99956.16
2022-10-25T05:28:09.959Z,99972.91
2022-10-25T05:28:52.892Z,99971.44
2022-10-25T05:29:32.965Z,99954.44
2022-10-25T05:30:13.930Z,99972.84
2022-10-25T05:30:54.000Z,99966.34
2022-10-25T05:31:36.918Z,99976.56
2022-10-25T05:32:16.950Z,99951.72
2022-10-25T05:33:02.712Z,99962.91
2022-10-25T05:33:45.162Z,99972.53
2022-10-25T05:34:24.881Z,99963.56
2022-10-25T05:35:04.956Z,99972.06
2022-10-25T05:35:44.878Z,99968.00
2022-10-25T05:36:25.984Z,99984.63
2022-10-25T05:37:05.916Z,99967.75
2022-10-25T05:37:45.957Z,99972.41
2022-10-25T05:38:25.910Z,99949.72
2022-10-25T05:39:06.966Z,99980.28
2022-10-25T05:39:46.889Z,99972.41
2022-10-25T05:40:26.963Z,99981.78
2022-10-25T05:41:07.896Z,99970.34
2022-10-25T05:41:49.600Z,99972.03
2022-10-25T05:42:29.889Z,99974.41
2022-10-25T05:43:09.933Z,99978.31
2022-10-25T05:43:50.882Z,99975.25
2022-10-25T05:44:30.951Z,99980.16
2022-10-25T05:45:11.887Z,99964.53
2022-10-25T05:45:51.979Z,99958.63
2022-10-25T05:46:31.874Z,99965.66
2022-10-25T05:47:11.985Z,99981.22
2022-10-25T05:47:52.901Z,99965.88
2022-10-25T05:48:32.934Z,99979.97
2022-10-25T05:49:12.859Z,99977.38
2022-10-25T05:49:52.952Z,99965.16
2022-10-25T05:50:33.901Z,99964.53
2022-10-25T05:51:33.334Z,99979.00
2022-10-25T05:52:14.871Z,99984.28
2022-10-25T05:53:01.909Z,99982.56
2022-10-25T05:53:58.870Z,99969.78
2022-10-25T05:54:52.875Z,99993.16
2022-10-25T05:55:46.898Z,99985.81
2022-10-25T05:56:42.867Z,99995.81
2022-10-25T05:57:36.865Z,99972.97
2022-10-25T05:58:23.894Z,99978.47
2022-10-25T05:58:58.010Z,99976.06
2022-10-25T05:59:44.871Z,99984.03
2022-10-25T06:00:19.945Z,99994.25
2022-10-25T06:01:08.011Z,99985.66
2022-10-25T06:02:01.047Z,99983.09
2022-10-25T06:02:49.845Z,99980.16
2022-10-25T06:03:30.900Z,99990.38
2022-10-25T06:04:25.882Z,99994.16
2022-10-25T06:05:19.861Z,100000.91
2022-10-25T06:06:16.852Z,100003.50
2022-10-25T06:07:10.857Z,99995.19
2022-10-25T06:08:04.855Z,100016.09
2022-10-25T06:08:52.869Z,100008.81
2022-10-25T06:09:26.916Z,100001.28
2022-10-25T06:10:14.873Z,99996.25
2022-10-25T06:10:48.941Z,100001.69
2022-10-25T06:11:39.881Z,100005.63
2022-10-25T06:12:13.927Z,100005.41
2022-10-25T06:13:00.870Z,100010.88
2022-10-25T06:13:34.941Z,100013.28
2022-10-25T06:14:16.878Z,100006.81
2022-10-25T06:14:56.905Z,100001.03
2022-10-25T06:15:36.892Z,99995.19
2022-10-25T06:16:22.025Z,100016.47
2022-10-25T06:17:04.159Z,99999.75
2022-10-25T06:17:43.936Z,99998.59
2022-10-25T06:18:23.856Z,100013.38
2022-10-25T06:19:03.969Z,100016.91
2022-10-25T06:19:44.982Z,100006.03
2022-10-25T06:20:24.929Z,100010.16
2022-10-25T06:21:09.842Z,100024.72
2022-10-25T06:21:49.973Z,100010.28
2022-10-25T06:22:29.828Z,100004.47
2022-10-25T06:23:11.114Z,100000.63
2022-10-25T06:23:52.861Z,100024.16
2022-10-25T06:24:32.987Z,100017.66
2022-10-25T06:25:13.886Z,100015.97
2022-10-25T06:25:54.508Z,100020.75
2022-10-25T06:26:36.850Z,100023.81
2022-10-25T06:27:16.902Z,100016.28
2022-10-25T06:27:57.849Z,100012.69
2022-10-25T06:28:39.004Z,100024.25
2022-10-25T06:29:19.860Z,100032.25
2022-10-25T06:29:59.909Z,100026.81
2022-10-25T06:30:43.873Z,100024.78
2022-10-25T06:31:25.928Z,100027.34
2022-10-25T06:32:05.885Z,100030.22
2022-10-25T06:32:46.180Z,100032.56
2022-10-25T06:33:28.046Z,100028.81
2022-10-25T06:34:09.894Z,100030.91
2022-10-25T06:34:50.816Z,100036.56
2022-10-25T06:35:30.881Z,100029.88
2022-10-25T06:36:13.857Z,100039.38
2022-10-25T06:36:54.913Z,100046.50
2022-10-25T06:37:34.892Z,100041.13
2022-10-25T06:38:14.984Z,100040.22
2022-10-25T06:38:57.568Z,100040.75
2022-10-25T06:39:39.900Z,100032.84
2022-10-25T06:40:19.829Z,100022.53
2022-10-25T06:41:08.929Z,100031.53
2022-10-25T06:41:48.845Z,100028.53
2022-10-25T06:42:28.912Z,100040.41
2022-10-25T06:43:08.834Z,100027.28
2022-10-25T06:44:55.826Z,100044.09
2022-10-25T06:45:35.883Z,100026.81
2022-10-25T06:46:27.821Z,100027.75
2022-10-25T06:47:17.704Z,100031.16
2022-10-25T06:47:51.936Z,100039.38
2022-10-25T06:48:39.090Z,100034.03
2022-10-25T06:49:12.908Z,100025.34
2022-10-25T06:49:59.888Z,100041.16
2022-10-25T06:50:33.899Z,100040.69
2022-10-25T06:51:21.852Z,100035.97
2022-10-25T06:51:55.963Z,100044.47
2022-10-25T06:52:35.842Z,100044.81
2022-10-25T06:53:15.909Z,100046.97
2022-10-25T06:54:17.172Z,100039.38
2022-10-25T06:54:57.885Z,100043.81
2022-10-25T06:55:38.832Z,100035.97
2022-10-25T06:56:20.930Z,100044.81
2022-10-25T06:57:00.824Z,100025.72
2022-10-25T06:57:47.850Z,100050.28
2022-10-25T06:58:45.826Z,100053.00
2022-10-25T06:59:39.810Z,100054.72
2022-10-25T07:00:33.796Z,100047.91
2022-10-25T07:01:29.951Z,100040.63
2022-10-25T07:02:23.909Z,100039.91
2022-10-25T07:03:10.868Z,100046.44
2022-10-25T07:03:46.073Z,100046.94
2022-10-25T07:04:32.817Z,100046.63
2022-10-25T07:05:06.872Z,100044.94
2022-10-25T07:05:53.796Z,100039.50
2022-10-25T07:06:35.810Z,100052.91
2022-10-25T07:07:23.809Z,100043.53
2022-10-25T07:07:57.869Z,100052.91
2022-10-25T07:08:39.898Z,100045.53
2022-10-25T07:09:19.874Z,100057.16
2022-10-25T07:10:00.826Z,100040.03
2022-10-25T07:10:40.943Z,100048.34
2022-10-25T07:11:25.789Z,100046.63
2022-10-25T07:12:11.428Z,100045.25
2022-10-25T07:12:52.786Z,100036.47
2022-10-25T07:13:32.858Z,100051.44
2022-10-25T07:14:12.819Z,100049.97
2022-10-25T07:14:52.889Z,100043.28
2022-10-25T07:15:32.802Z,100048.78
2022-10-25T07:16:16.938Z,100038.13
2022-10-25T07:16:56.825Z,100040.88
2022-10-25T07:17:36.896Z,100059.66
2022-10-25T07:18:16.786Z,100038.13
2022-10-25T07:18:56.871Z,100062.59
2022-10-25T07:19:37.808Z,100049.72
2022-10-25T07:20:17.869Z,100054.16
2022-10-25T07:20:57.787Z,100048.50
2022-10-25T07:21:39.909Z,100057.97
2022-10-25T07:22:19.797Z,100038.41
2022-10-25T07:23:00.634Z,100061.59
2022-10-25T07:23:44.822Z,100063.72
2022-10-25T07:24:24.849Z,100055.09
2022-10-25T07:25:05.940Z,100066.03
2022-10-25T07:25:45.840Z,100051.75
2022-10-25T07:26:28.814Z,100071.53
2022-10-25T07:27:08.927Z,100052.38
2022-10-25T07:27:49.218Z,100029.41
2022-10-25T07:28:43.792Z,100070.22
2022-10-25T07:29:37.833Z,100070.75
2022-10-25T07:30:24.863Z,100045.25
2022-10-25T07:30:58.886Z,100063.38
2022-10-25T07:31:50.803Z,100058.50
2022-10-25T07:32:24.854Z,100039.59
2022-10-25T07:33:11.760Z,100052.34
2022-10-25T07:33:45.836Z,100064.44
2022-10-25T07:34:32.797Z,100063.09
2022-10-25T07:35:06.967Z,100053.91
2022-10-25T07:35:59.098Z,100050.19
2022-10-25T07:36:48.857Z,100065.38
2022-10-25T07:37:29.779Z,100056.00
2022-10-25T07:38:09.849Z,100056.38
2022-10-25T07:38:49.772Z,100058.38
2022-10-25T07:39:29.847Z,100052.91
2022-10-25T07:40:10.798Z,100062.09
2022-10-25T07:40:57.814Z,100049.53
2022-10-25T07:41:51.801Z,100047.66
2022-10-25T07:42:45.796Z,100045.81
2022-10-25T07:43:40.771Z,100052.53
2022-10-25T07:44:35.835Z,100056.88
2022-10-25T07:45:31.210Z,100060.81
2022-10-25T07:46:18.797Z,100057.31
2022-10-25T07:46:53.959Z,100052.25
2022-10-25T07:47:40.804Z,100061.25
2022-10-25T07:48:14.873Z,100062.59
2022-10-25T07:49:01.780Z,100058.28
2022-10-25T07:49:36.905Z,100043.84
2022-10-25T07:50:25.836Z,100050.56
2022-10-25T07:50:59.830Z,100040.84
2022-10-25T07:51:39.787Z,100058.75
2022-10-25T07:52:20.454Z,100042.91
2022-10-25T07:53:03.746Z,100053.47
2022-10-25T07:53:43.858Z,100058.56
2022-10-25T07:54:23.789Z,100063.69
2022-10-25T07:55:03.905Z,100057.91
2022-10-25T07:55:43.756Z,100068.94
2022-10-25T07:56:25.893Z,100061.94
2022-10-25T07:57:05.833Z,100068.78
2022-10-25T07:57:47.160Z,100059.59
2022-10-25T07:58:28.798Z,100058.94
2022-10-25T07:59:08.868Z,100046.00
2022-10-25T07:59:49.731Z,100049.09
2022-10-25T08:00:29.849Z,100048.41
2022-10-25T08:01:12.823Z,100045.72
2022-10-25T08:01:53.934Z,100047.06
2022-10-25T08:02:34.795Z,100052.53
2022-10-25T08:03:14.919Z,100056.28
2022-10-25T08:03:55.742Z,100075.31
2022-10-25T08:04:35.827Z,100065.16
2022-10-25T08:05:16.746Z,100069.88
2022-10-25T08:05:56.808Z,100053.56
2022-10-25T08:06:36.745Z,100063.44
2022-10-25T08:07:16.840Z,100072.59
2022-10-25T08:07:57.797Z,100063.47
2022-10-25T08:08:37.926Z,100066.56
2022-10-25T08:09:36.992Z,100065.34
2022-10-25T08:10:19.493Z,100057.31
2022-10-25T08:10:59.740Z,100072.50
2022-10-25T08:11:39.846Z,100066.88
2022-10-25T08:12:22.547Z,100066.88
2022-10-25T08:13:09.956Z,100037.06
2022-10-25T08:14:03.737Z,100065.03
2022-10-25T08:14:57.751Z,100070.97
2022-10-25T08:15:51.737Z,100063.22
2022-10-25T08:16:32.469Z,100068.47
2022-10-25T08:17:20.752Z,100054.16
2022-10-25T08:18:01.716Z,100066.63
2022-10-25T08:18:42.760Z,100070.38
2022-10-25T08:19:16.810Z,100059.81
2022-10-25T08:19:51.446Z,100064.75
2022-10-25T08:21:00.135Z,100060.00
2022-10-25T08:21:26.871Z,100056.25
2022-10-25T08:22:00.440Z,100061.03
2022-10-25T08:22:41.732Z,100068.38
2022-10-25T08:23:15.930Z,100061.91
2022-10-25T08:23:55.785Z,100060.16
2022-10-25T08:24:38.613Z,100058.47
2022-10-25T08:25:19.940Z,100053.03
2022-10-25T08:26:01.802Z,100064.28
2022-10-25T08:26:41.758Z,100059.00
2022-10-25T08:27:21.992Z,100054.41
2022-10-25T08:28:01.748Z,100059.31
2022-10-25T08:28:44.074Z,100056.78
2022-10-25T08:29:24.823Z,100069.00
2022-10-25T08:30:04.817Z,100066.28
2022-10-25T08:30:46.762Z,100061.03
2022-10-25T08:31:26.791Z,100072.78
2022-10-25T08:32:06.715Z,100066.31
2022-10-25T08:32:46.842Z,100056.09
2022-10-25T08:33:26.744Z,100079.59
2022-10-25T08:34:07.900Z,100079.56
2022-10-25T08:34:47.778Z,100085.69
2022-10-25T08:35:27.811Z,100077.84
2022-10-25T08:36:10.726Z,100068.34
2022-10-25T08:36:50.867Z,100063.56
2022-10-25T08:37:31.716Z,100071.72
2022-10-25T08:38:12.790Z,100073.88
2022-10-25T08:38:53.703Z,100090.94
2022-10-25T08:39:33.779Z,100080.91
2022-10-25T08:40:15.757Z,100074.78
2022-10-25T08:41:06.899Z,100081.94
2022-10-25T08:42:06.727Z,100080.16
2022-10-25T08:43:31.790Z,100075.47
2022-10-25T08:44:29.723Z,100067.97
2022-10-25T08:46:06.762Z,100089.75
2022-10-25T08:46:59.670Z,100066.09
2022-10-25T08:47:51.714Z,100080.28
2022-10-25T08:48:35.349Z,100080.47
2022-10-25T08:50:17.698Z,100088.13
2022-10-25T08:50:54.110Z,100079.25
2022-10-25T08:51:40.759Z,100062.41
2022-10-25T08:52:31.801Z,100075.50